sensor_id;sensor_type;location;lat;lon;timestamp;pressure;altitude;pressure_sealevel;temperature;humidity
63033;BME280;49121;38.932;-9.018;2022-07-22T00:01:51;101533.00;;;18.60;77.41
63033;BME280;49121;38.932;-9.018;2022-07-22T00:03:51;101544.69;;;18.56;77.63
63033;BME280;49121;38.932;-9.018;2022-07-22T00:05:52;101550.88;;;18.56;77.84
63033;BME280;49121;38.932;-9.018;2022-07-22T00:07:53;101548.13;;;18.59;77.94
63033;BME280;49121;38.932;-9.018;2022-07-22T00:12:13;101542.06;;;18.54;77.70
63033;BME280;49121;38.932;-9.018;2022-07-22T00:14:13;101543.81;;;18.55;77.85
63033;BME280;49121;38.932;-9.018;2022-07-22T00:16:34;101536.63;;;18.57;77.67
63033;BME280;49121;38.932;-9.018;2022-07-22T00:18:34;101537.81;;;18.49;78.01
63033;BME280;49121;38.932;-9.018;2022-07-22T00:20:35;101530.56;;;18.52;77.45
63033;BME280;49121;38.932;-9.018;2022-07-22T00:22:36;101548.38;;;18.52;77.82
63033;BME280;49121;38.932;-9.018;2022-07-22T00:24:36;101545.50;;;18.58;77.41
63033;BME280;49121;38.932;-9.018;2022-07-22T00:26:37;101526.22;;;18.50;77.54
63033;BME280;49121;38.932;-9.018;2022-07-22T00:28:56;101533.16;;;18.55;77.77
63033;BME280;49121;38.932;-9.018;2022-07-22T00:31:02;101527.16;;;18.49;78.15
63033;BME280;49121;38.932;-9.018;2022-07-22T00:33:03;101507.09;;;18.37;78.38
63033;BME280;49121;38.932;-9.018;2022-07-22T00:35:05;101535.03;;;18.52;78.10
63033;BME280;49121;38.932;-9.018;2022-07-22T00:37:07;101534.22;;;18.50;78.28
63033;BME280;49121;38.932;-9.018;2022-07-22T00:39:08;101539.50;;;18.51;78.41
63033;BME280;49121;38.932;-9.018;2022-07-22T00:41:09;101535.34;;;18.43;78.84
63033;BME280;49121;38.932;-9.018;2022-07-22T00:43:11;101536.72;;;18.54;78.48
63033;BME280;49121;38.932;-9.018;2022-07-22T00:45:12;101529.75;;;18.50;78.49
63033;BME280;49121;38.932;-9.018;2022-07-22T00:47:13;101531.34;;;18.56;78.25
63033;BME280;49121;38.932;-9.018;2022-07-22T00:49:13;101524.56;;;18.46;78.75
63033;BME280;49121;38.932;-9.018;2022-07-22T00:51:16;101524.56;;;18.46;78.68
63033;BME280;49121;38.932;-9.018;2022-07-22T00:53:17;101529.94;;;18.44;78.44
63033;BME280;49121;38.932;-9.018;2022-07-22T00:55:18;101496.31;;;18.40;78.10
63033;BME280;49121;38.932;-9.018;2022-07-22T00:57:19;101512.19;;;18.45;78.10
63033;BME280;49121;38.932;-9.018;2022-07-22T00:59:39;101511.81;;;18.55;77.85
63033;BME280;49121;38.932;-9.018;2022-07-22T01:01:40;101512.78;;;18.53;77.87
63033;BME280;49121;38.932;-9.018;2022-07-22T01:08:23;101498.50;;;18.55;77.56
63033;BME280;49121;38.932;-9.018;2022-07-22T01:10:42;101494.34;;;18.47;77.71
63033;BME280;49121;38.932;-9.018;2022-07-22T01:12:43;101493.59;;;18.42;77.94
63033;BME280;49121;38.932;-9.018;2022-07-22T01:14:44;101503.88;;;18.54;78.01
63033;BME280;49121;38.932;-9.018;2022-07-22T01:16:45;101499.78;;;18.42;78.56
63033;BME280;49121;38.932;-9.018;2022-07-22T01:18:46;101486.59;;;18.39;78.40
63033;BME280;49121;38.932;-9.018;2022-07-22T01:21:07;101504.25;;;18.42;78.78
63033;BME280;49121;38.932;-9.018;2022-07-22T01:23:26;101500.78;;;18.39;78.90
63033;BME280;49121;38.932;-9.018;2022-07-22T01:25:27;101511.56;;;18.36;78.99
63033;BME280;49121;38.932;-9.018;2022-07-22T01:27:28;101500.22;;;18.30;79.03
63033;BME280;49121;38.932;-9.018;2022-07-22T01:29:33;101500.91;;;18.36;78.87
63033;BME280;49121;38.932;-9.018;2022-07-22T01:31:34;101503.56;;;18.36;78.88
63033;BME280;49121;38.932;-9.018;2022-07-22T01:33:35;101497.44;;;18.33;78.95
63033;BME280;49121;38.932;-9.018;2022-07-22T01:36:04;101502.56;;;18.39;78.61
63033;BME280;49121;38.932;-9.018;2022-07-22T01:38:06;101494.53;;;18.41;78.45
63033;BME280;49121;38.932;-9.018;2022-07-22T01:40:08;101486.16;;;18.25;78.89
63033;BME280;49121;38.932;-9.018;2022-07-22T01:42:09;101479.97;;;18.24;78.73
63033;BME280;49121;38.932;-9.018;2022-07-22T01:44:10;101482.38;;;18.32;78.66
63033;BME280;49121;38.932;-9.018;2022-07-22T01:46:12;101470.28;;;18.22;78.64
63033;BME280;49121;38.932;-9.018;2022-07-22T01:48:16;101481.50;;;18.31;78.40
63033;BME280;49121;38.932;-9.018;2022-07-22T01:50:17;101479.84;;;18.27;78.96
63033;BME280;49121;38.932;-9.018;2022-07-22T01:52:18;101477.97;;;18.31;78.84
63033;BME280;49121;38.932;-9.018;2022-07-22T01:54:18;101451.97;;;18.11;79.14
63033;BME280;49121;38.932;-9.018;2022-07-22T01:56:20;101474.44;;;18.30;78.81
63033;BME280;49121;38.932;-9.018;2022-07-22T01:58:24;101468.31;;;18.27;78.78
63033;BME280;49121;38.932;-9.018;2022-07-22T02:00:25;101451.81;;;18.15;79.00
63033;BME280;49121;38.932;-9.018;2022-07-22T02:02:26;101465.81;;;18.22;79.26
63033;BME280;49121;38.932;-9.018;2022-07-22T02:04:27;101471.09;;;18.24;79.31
63033;BME280;49121;38.932;-9.018;2022-07-22T02:06:28;101470.94;;;18.28;79.14
63033;BME280;49121;38.932;-9.018;2022-07-22T02:09:02;101471.00;;;18.27;79.33
63033;BME280;49121;38.932;-9.018;2022-07-22T02:11:10;101465.31;;;18.11;79.64
63033;BME280;49121;38.932;-9.018;2022-07-22T02:13:43;101473.69;;;18.25;79.62
63033;BME280;49121;38.932;-9.018;2022-07-22T02:15:44;101476.28;;;18.28;79.49
63033;BME280;49121;38.932;-9.018;2022-07-22T02:17:54;101472.94;;;18.22;79.46
63033;BME280;49121;38.932;-9.018;2022-07-22T02:19:55;101471.25;;;18.19;79.94
63033;BME280;49121;38.932;-9.018;2022-07-22T02:21:55;101471.03;;;18.25;79.74
63033;BME280;49121;38.932;-9.018;2022-07-22T02:26:35;101463.94;;;18.26;79.50
63033;BME280;49121;38.932;-9.018;2022-07-22T02:28:36;101471.97;;;18.24;79.67
63033;BME280;49121;38.932;-9.018;2022-07-22T02:30:38;101481.56;;;18.30;79.27
63033;BME280;49121;38.932;-9.018;2022-07-22T02:32:39;101459.97;;;18.11;79.67
63033;BME280;49121;38.932;-9.018;2022-07-22T02:34:40;101471.19;;;18.21;79.84
63033;BME280;49121;38.932;-9.018;2022-07-22T02:36:41;101480.06;;;18.21;79.84
63033;BME280;49121;38.932;-9.018;2022-07-22T02:38:43;101470.59;;;18.12;80.18
63033;BME280;49121;38.932;-9.018;2022-07-22T02:40:44;101468.63;;;18.17;79.86
63033;BME280;49121;38.932;-9.018;2022-07-22T02:42:45;101467.78;;;18.17;80.00
63033;BME280;49121;38.932;-9.018;2022-07-22T02:44:48;101472.94;;;18.22;79.75
63033;BME280;49121;38.932;-9.018;2022-07-22T02:46:49;101480.19;;;18.16;79.90
63033;BME280;49121;38.932;-9.018;2022-07-22T02:49:08;101465.03;;;18.18;79.68
63033;BME280;49121;38.932;-9.018;2022-07-22T02:51:09;101465.81;;;18.22;79.44
63033;BME280;49121;38.932;-9.018;2022-07-22T02:53:28;101474.78;;;18.19;79.73
63033;BME280;49121;38.932;-9.018;2022-07-22T02:55:33;101465.84;;;18.21;79.22
63033;BME280;49121;38.932;-9.018;2022-07-22T02:57:52;101470.44;;;18.17;79.18
63033;BME280;49121;38.932;-9.018;2022-07-22T02:59:54;101470.59;;;18.12;79.41
63033;BME280;49121;38.932;-9.018;2022-07-22T03:01:54;101477.31;;;18.24;78.98
63033;BME280;49121;38.932;-9.018;2022-07-22T03:03:55;101474.03;;;18.14;79.15
63033;BME280;49121;38.932;-9.018;2022-07-22T03:05:58;101477.63;;;18.15;79.13
63033;BME280;49121;38.932;-9.018;2022-07-22T03:08:06;101467.66;;;18.20;78.93
63033;BME280;49121;38.932;-9.018;2022-07-22T03:10:07;101479.97;;;18.24;78.67
63033;BME280;49121;38.932;-9.018;2022-07-22T03:12:27;101463.31;;;18.17;79.07
63033;BME280;49121;38.932;-9.018;2022-07-22T03:14:28;101464.13;;;18.19;78.86
63033;BME280;49121;38.932;-9.018;2022-07-22T03:16:29;101461.78;;;18.10;79.31
63033;BME280;49121;38.932;-9.018;2022-07-22T03:18:30;101466.06;;;18.14;79.06
63033;BME280;49121;38.932;-9.018;2022-07-22T03:20:30;101458.22;;;18.10;79.03
63033;BME280;49121;38.932;-9.018;2022-07-22T03:22:32;101470.63;;;18.11;78.97
63033;BME280;49121;38.932;-9.018;2022-07-22T03:24:33;101475.81;;;18.15;78.98
63033;BME280;49121;38.932;-9.018;2022-07-22T03:26:34;101463.63;;;18.08;79.07
63033;BME280;49121;38.932;-9.018;2022-07-22T03:28:35;101481.28;;;18.11;78.98
63033;BME280;49121;38.932;-9.018;2022-07-22T03:30:44;101479.00;;;17.98;79.53
63033;BME280;49121;38.932;-9.018;2022-07-22T03:32:47;101476.03;;;18.08;79.35
63033;BME280;49121;38.932;-9.018;2022-07-22T03:37:45;101464.78;;;18.00;79.46
63033;BME280;49121;38.932;-9.018;2022-07-22T03:39:46;101466.38;;;18.05;79.29
63033;BME280;49121;38.932;-9.018;2022-07-22T03:41:47;101469.13;;;18.02;79.19
63033;BME280;49121;38.932;-9.018;2022-07-22T03:43:52;101468.47;;;17.95;79.41
63033;BME280;49121;38.932;-9.018;2022-07-22T03:45:53;101475.44;;;18.00;79.34
63033;BME280;49121;38.932;-9.018;2022-07-22T03:47:54;101471.16;;;17.94;79.34
63033;BME280;49121;38.932;-9.018;2022-07-22T03:49:58;101472.66;;;18.03;79.18
63033;BME280;49121;38.932;-9.018;2022-07-22T03:52:03;101477.13;;;18.02;78.97
63033;BME280;49121;38.932;-9.018;2022-07-22T03:54:04;101469.38;;;17.94;79.02
63033;BME280;49121;38.932;-9.018;2022-07-22T03:56:23;101464.09;;;17.93;79.07
63033;BME280;49121;38.932;-9.018;2022-07-22T03:58:27;101476.13;;;18.06;78.57
63033;BME280;49121;38.932;-9.018;2022-07-22T04:00:29;101463.03;;;17.98;78.96
63033;BME280;49121;38.932;-9.018;2022-07-22T04:02:31;101455.81;;;18.02;78.58
63033;BME280;49121;38.932;-9.018;2022-07-22T04:04:33;101469.13;;;18.02;78.99
63033;BME280;49121;38.932;-9.018;2022-07-22T04:06:33;101459.34;;;18.03;79.10
63033;BME280;49121;38.932;-9.018;2022-07-22T04:09:00;101469.88;;;18.06;78.94
63033;BME280;49121;38.932;-9.018;2022-07-22T04:11:02;101472.00;;;17.96;79.48
63033;BME280;49121;38.932;-9.018;2022-07-22T04:13:03;101464.56;;;18.06;78.93
63033;BME280;49121;38.932;-9.018;2022-07-22T04:15:17;101453.34;;;17.96;78.95
63033;BME280;49121;38.932;-9.018;2022-07-22T04:17:18;101459.31;;;18.04;78.97
63033;BME280;49121;38.932;-9.018;2022-07-22T04:19:37;101475.09;;;18.10;78.80
63033;BME280;49121;38.932;-9.018;2022-07-22T04:21:56;101456.69;;;18.03;78.77
63033;BME280;49121;38.932;-9.018;2022-07-22T04:24:16;101470.66;;;18.09;78.99
63033;BME280;49121;38.932;-9.018;2022-07-22T04:26:17;101478.00;;;18.03;79.08
63033;BME280;49121;38.932;-9.018;2022-07-22T04:28:17;101478.00;;;18.03;79.13
63033;BME280;49121;38.932;-9.018;2022-07-22T04:30:18;101462.84;;;18.05;78.95
63033;BME280;49121;38.932;-9.018;2022-07-22T04:32:21;101469.88;;;18.06;78.89
63033;BME280;49121;38.932;-9.018;2022-07-22T04:34:42;101469.97;;;18.04;79.07
63033;BME280;49121;38.932;-9.018;2022-07-22T04:36:43;101462.84;;;18.05;78.57
63033;BME280;49121;38.932;-9.018;2022-07-22T04:38:44;101468.25;;;18.02;79.21
63033;BME280;49121;38.932;-9.018;2022-07-22T04:40:45;101449.88;;;17.94;79.01
63033;BME280;49121;38.932;-9.018;2022-07-22T04:42:47;101473.69;;;17.98;79.14
63033;BME280;49121;38.932;-9.018;2022-07-22T04:44:47;101463.88;;;17.99;78.78
63033;BME280;49121;38.932;-9.018;2022-07-22T04:46:48;101470.88;;;18.03;78.63
63033;BME280;49121;38.932;-9.018;2022-07-22T04:48:49;101458.09;;;17.86;79.21
63033;BME280;49121;38.932;-9.018;2022-07-22T04:50:52;101465.84;;;17.94;78.88
63033;BME280;49121;38.932;-9.018;2022-07-22T04:52:53;101471.06;;;17.97;78.80
63033;BME280;49121;38.932;-9.018;2022-07-22T04:54:54;101458.09;;;17.86;79.06
63033;BME280;49121;38.932;-9.018;2022-07-22T04:56:55;101481.09;;;17.89;79.31
63033;BME280;49121;38.932;-9.018;2022-07-22T04:58:56;101466.84;;;17.90;78.93
63033;BME280;49121;38.932;-9.018;2022-07-22T05:01:02;101471.22;;;17.92;78.88
63033;BME280;49121;38.932;-9.018;2022-07-22T05:05:24;101481.72;;;17.97;78.81
63033;BME280;49121;38.932;-9.018;2022-07-22T05:07:26;101480.69;;;18.01;78.71
63033;BME280;49121;38.932;-9.018;2022-07-22T05:09:27;101472.03;;;17.94;78.84
63033;BME280;49121;38.932;-9.018;2022-07-22T05:11:28;101468.59;;;17.91;78.69
63033;BME280;49121;38.932;-9.018;2022-07-22T05:13:29;101468.47;;;17.95;78.44
63033;BME280;49121;38.932;-9.018;2022-07-22T05:15:31;101481.69;;;17.98;78.44
63033;BME280;49121;38.932;-9.018;2022-07-22T05:17:32;101479.13;;;17.95;78.74
63033;BME280;49121;38.932;-9.018;2022-07-22T05:19:42;101480.03;;;17.94;78.70
63033;BME280;49121;38.932;-9.018;2022-07-22T05:21:47;101491.84;;;17.86;79.00
63033;BME280;49121;38.932;-9.018;2022-07-22T05:23:49;101492.63;;;17.89;78.80
63033;BME280;49121;38.932;-9.018;2022-07-22T05:25:51;101492.47;;;17.94;78.78
63033;BME280;49121;38.932;-9.018;2022-07-22T05:30:31;101496.28;;;17.87;78.98
63033;BME280;49121;38.932;-9.018;2022-07-22T05:32:32;101494.50;;;17.86;78.86
63033;BME280;49121;38.932;-9.018;2022-07-22T05:34:36;101503.47;;;17.83;79.19
63033;BME280;49121;38.932;-9.018;2022-07-22T05:36:36;101490.41;;;17.74;79.51
63033;BME280;49121;38.932;-9.018;2022-07-22T05:38:37;101494.66;;;17.79;79.33
63033;BME280;49121;38.932;-9.018;2022-07-22T05:40:39;101496.50;;;17.77;79.65
63033;BME280;49121;38.932;-9.018;2022-07-22T05:42:40;101497.31;;;17.79;79.60
63033;BME280;49121;38.932;-9.018;2022-07-22T05:44:40;101504.38;;;17.82;79.40
63033;BME280;49121;38.932;-9.018;2022-07-22T05:46:41;101514.28;;;17.77;79.69
63033;BME280;49121;38.932;-9.018;2022-07-22T05:48:46;101510.94;;;17.70;80.29
63033;BME280;49121;38.932;-9.018;2022-07-22T05:50:47;101508.13;;;17.75;79.86
63033;BME280;49121;38.932;-9.018;2022-07-22T05:52:48;101506.56;;;17.68;80.14
63033;BME280;49121;38.932;-9.018;2022-07-22T05:54:48;101514.09;;;17.85;79.55
63033;BME280;49121;38.932;-9.018;2022-07-22T05:56:49;101516.75;;;17.85;79.48
63033;BME280;49121;38.932;-9.018;2022-07-22T05:58:50;101514.69;;;17.93;79.27
63033;BME280;49121;38.932;-9.018;2022-07-22T06:00:51;101516.13;;;18.05;78.90
63033;BME280;49121;38.932;-9.018;2022-07-22T06:02:52;101529.66;;;17.97;78.66
63033;BME280;49121;38.932;-9.018;2022-07-22T06:04:54;101526.84;;;18.02;78.58
63033;BME280;49121;38.932;-9.018;2022-07-22T06:07:14;101528.31;;;18.12;78.25
63033;BME280;49121;38.932;-9.018;2022-07-22T06:11:55;101515.41;;;18.28;77.51
63033;BME280;49121;38.932;-9.018;2022-07-22T06:13:56;101502.22;;;18.23;77.04
63033;BME280;49121;38.932;-9.018;2022-07-22T06:15:58;101522.03;;;18.43;76.61
63033;BME280;49121;38.932;-9.018;2022-07-22T06:18:01;101521.75;;;18.50;75.97
63033;BME280;49121;38.932;-9.018;2022-07-22T06:20:02;101518.97;;;18.27;76.89
63033;BME280;49121;38.932;-9.018;2022-07-22T06:22:21;101521.66;;;18.53;75.77
63033;BME280;49121;38.932;-9.018;2022-07-22T06:24:45;101503.72;;;18.32;75.94
63033;BME280;49121;38.932;-9.018;2022-07-22T06:27:04;101527.53;;;18.63;75.40
63033;BME280;49121;38.932;-9.018;2022-07-22T06:29:05;101515.75;;;18.70;74.55
63033;BME280;49121;38.932;-9.018;2022-07-22T06:31:10;101529.09;;;18.70;74.64
63033;BME280;49121;38.932;-9.018;2022-07-22T06:33:11;101539.75;;;18.97;73.65
63033;BME280;49121;38.932;-9.018;2022-07-22T06:35:12;101540.50;;;19.51;72.29
63033;BME280;49121;38.932;-9.018;2022-07-22T06:37:13;101540.50;;;20.86;66.65
63033;BME280;49121;38.932;-9.018;2022-07-22T06:39:13;101538.75;;;21.47;63.28
63033;BME280;49121;38.932;-9.018;2022-07-22T06:44:45;101543.25;;;23.79;55.23
63033;BME280;49121;38.932;-9.018;2022-07-22T06:47:09;101551.69;;;23.55;55.48
63033;BME280;49121;38.932;-9.018;2022-07-22T06:49:12;101565.06;;;24.54;52.52
63033;BME280;49121;38.932;-9.018;2022-07-22T06:51:13;101552.97;;;23.81;54.98
63033;BME280;49121;38.932;-9.018;2022-07-22T06:53:13;101561.25;;;24.72;52.14
63033;BME280;49121;38.932;-9.018;2022-07-22T06:55:17;101565.47;;;25.22;50.80
63033;BME280;49121;38.932;-9.018;2022-07-22T06:57:27;101569.25;;;25.63;49.46
63033;BME280;49121;38.932;-9.018;2022-07-22T06:59:28;101567.13;;;25.68;49.13
63033;BME280;49121;38.932;-9.018;2022-07-22T07:01:29;101566.78;;;26.16;48.07
63033;BME280;49121;38.932;-9.018;2022-07-22T07:03:34;101552.25;;;26.72;46.04
63033;BME280;49121;38.932;-9.018;2022-07-22T07:05:37;101571.66;;;26.65;45.95
63033;BME280;49121;38.932;-9.018;2022-07-22T07:07:38;101564.31;;;27.20;45.06
63033;BME280;49121;38.932;-9.018;2022-07-22T07:09:39;101576.13;;;27.19;44.51
63033;BME280;49121;38.932;-9.018;2022-07-22T07:12:00;101564.44;;;27.18;44.54
63033;BME280;49121;38.932;-9.018;2022-07-22T07:14:42;101574.09;;;27.35;43.90
63033;BME280;49121;38.932;-9.018;2022-07-22T07:16:43;101570.88;;;25.65;47.96
63033;BME280;49121;38.932;-9.018;2022-07-22T07:18:45;101582.75;;;27.27;44.34
63033;BME280;49121;38.932;-9.018;2022-07-22T07:20:46;101576.78;;;27.73;43.04
63033;BME280;49121;38.932;-9.018;2022-07-22T07:22:47;101583.69;;;27.78;43.55
63033;BME280;49121;38.932;-9.018;2022-07-22T07:24:49;101576.50;;;28.15;42.20
63033;BME280;49121;38.932;-9.018;2022-07-22T07:26:50;101588.97;;;28.66;40.94
63033;BME280;49121;38.932;-9.018;2022-07-22T07:28:51;101590.88;;;28.77;40.86
63033;BME280;49121;38.932;-9.018;2022-07-22T07:31:11;101596.41;;;29.57;38.85
63033;BME280;49121;38.932;-9.018;2022-07-22T07:33:13;101590.34;;;29.31;38.74
63033;BME280;49121;38.932;-9.018;2022-07-22T07:35:14;101587.69;;;27.85;42.01
63033;BME280;49121;38.932;-9.018;2022-07-22T07:37:15;101590.28;;;28.36;41.46
63033;BME280;49121;38.932;-9.018;2022-07-22T07:39:16;101593.56;;;27.79;42.60
63033;BME280;49121;38.932;-9.018;2022-07-22T07:41:17;101598.31;;;28.62;40.77
63033;BME280;49121;38.932;-9.018;2022-07-22T07:43:22;101600.34;;;28.71;40.70
63033;BME280;49121;38.932;-9.018;2022-07-22T07:45:37;101605.56;;;28.85;40.56
63033;BME280;49121;38.932;-9.018;2022-07-22T07:47:37;101603.53;;;29.00;39.67
63033;BME280;49121;38.932;-9.018;2022-07-22T07:49:38;101618.22;;;28.73;39.68
63033;BME280;49121;38.932;-9.018;2022-07-22T07:51:40;101602.84;;;26.83;44.96
63033;BME280;49121;38.932;-9.018;2022-07-22T07:53:41;101617.97;;;28.77;40.60
63033;BME280;49121;38.932;-9.018;2022-07-22T07:55:42;101609.28;;;28.60;41.02
63033;BME280;49121;38.932;-9.018;2022-07-22T07:57:43;101601.50;;;28.19;41.85
63033;BME280;49121;38.932;-9.018;2022-07-22T08:00:06;101603.50;;;27.91;42.88
63033;BME280;49121;38.932;-9.018;2022-07-22T08:02:14;101614.66;;;28.73;40.84
63033;BME280;49121;38.932;-9.018;2022-07-22T08:04:14;101608.47;;;30.21;37.85
63033;BME280;49121;38.932;-9.018;2022-07-22T08:06:15;101618.22;;;31.10;35.79
63033;BME280;49121;38.932;-9.018;2022-07-22T08:08:16;101613.63;;;28.26;41.14
63033;BME280;49121;38.932;-9.018;2022-07-22T08:10:19;101596.53;;;28.12;41.87
63033;BME280;49121;38.932;-9.018;2022-07-22T08:12:45;101616.19;;;29.93;38.25
63033;BME280;49121;38.932;-9.018;2022-07-22T08:17:27;101623.34;;;29.83;38.51
63033;BME280;49121;38.932;-9.018;2022-07-22T08:19:29;101619.38;;;29.18;39.43
63033;BME280;49121;38.932;-9.018;2022-07-22T08:21:30;101619.88;;;29.92;38.32
63033;BME280;49121;38.932;-9.018;2022-07-22T08:23:34;101622.94;;;30.32;37.51
63033;BME280;49121;38.932;-9.018;2022-07-22T08:25:36;101626.06;;;29.83;38.34
63033;BME280;49121;38.932;-9.018;2022-07-22T08:27:38;101621.97;;;30.00;38.39
63033;BME280;49121;38.932;-9.018;2022-07-22T08:29:39;101628.59;;;29.62;38.51
63033;BME280;49121;38.932;-9.018;2022-07-22T08:31:48;101622.47;;;29.71;39.13
63033;BME280;49121;38.932;-9.018;2022-07-22T08:33:51;101618.97;;;30.80;36.44
63033;BME280;49121;38.932;-9.018;2022-07-22T08:35:51;101625.28;;;30.03;37.22
63033;BME280;49121;38.932;-9.018;2022-07-22T08:37:52;101617.63;;;29.97;37.45
63033;BME280;49121;38.932;-9.018;2022-07-22T08:39:54;101613.28;;;30.83;36.23
63033;BME280;49121;38.932;-9.018;2022-07-22T08:41:56;101627.59;;;29.40;37.93
63033;BME280;49121;38.932;-9.018;2022-07-22T08:43:58;101610.06;;;30.78;35.58
63033;BME280;49121;38.932;-9.018;2022-07-22T08:45:59;101622.78;;;30.89;35.09
63033;BME280;49121;38.932;-9.018;2022-07-22T08:48:03;101625.66;;;30.21;37.52
63033;BME280;49121;38.932;-9.018;2022-07-22T08:50:44;101613.91;;;31.08;35.43
63033;BME280;49121;38.932;-9.018;2022-07-22T08:53:14;101627.84;;;31.77;34.71
63033;BME280;49121;38.932;-9.018;2022-07-22T08:55:17;101623.41;;;32.77;32.68
63033;BME280;49121;38.932;-9.018;2022-07-22T08:57:19;101620.97;;;32.74;32.14
63033;BME280;49121;38.932;-9.018;2022-07-22T08:59:19;101618.41;;;30.65;34.71
63033;BME280;49121;38.932;-9.018;2022-07-22T09:01:21;101624.53;;;30.35;35.50
63033;BME280;49121;38.932;-9.018;2022-07-22T09:03:25;101613.56;;;30.25;35.65
63033;BME280;49121;38.932;-9.018;2022-07-22T09:05:34;101620.22;;;30.87;34.41
63033;BME280;49121;38.932;-9.018;2022-07-22T09:07:39;101612.13;;;31.91;33.16
63033;BME280;49121;38.932;-9.018;2022-07-22T09:10:01;101609.50;;;32.10;32.71
63033;BME280;49121;38.932;-9.018;2022-07-22T09:12:58;101604.91;;;32.80;31.71
63033;BME280;49121;38.932;-9.018;2022-07-22T09:15:15;101601.06;;;31.83;33.26
63033;BME280;49121;38.932;-9.018;2022-07-22T09:17:28;101613.59;;;33.43;30.59
63033;BME280;49121;38.932;-9.018;2022-07-22T09:19:49;101612.25;;;31.37;33.98
63033;BME280;49121;38.932;-9.018;2022-07-22T09:22:39;101609.66;;;32.28;33.15
63033;BME280;49121;38.932;-9.018;2022-07-22T09:24:53;101604.75;;;32.53;32.62
63033;BME280;49121;38.932;-9.018;2022-07-22T09:27:01;101596.66;;;32.42;32.11
63033;BME280;49121;38.932;-9.018;2022-07-22T09:29:10;101613.88;;;33.39;30.52
63033;BME280;49121;38.932;-9.018;2022-07-22T09:31:39;101606.66;;;32.12;32.67
63033;BME280;49121;38.932;-9.018;2022-07-22T09:33:59;101601.28;;;32.60;31.94
63033;BME280;49121;38.932;-9.018;2022-07-22T09:36:04;101611.06;;;33.59;29.59
63033;BME280;49121;38.932;-9.018;2022-07-22T09:38:11;101605.75;;;34.05;29.35
63033;BME280;49121;38.932;-9.018;2022-07-22T09:40:18;101601.72;;;32.95;30.80
63033;BME280;49121;38.932;-9.018;2022-07-22T09:42:19;101594.63;;;31.84;32.17
63033;BME280;49121;38.932;-9.018;2022-07-22T09:44:22;101597.81;;;31.58;32.55
63033;BME280;49121;38.932;-9.018;2022-07-22T09:46:38;101592.34;;;32.29;31.60
63033;BME280;49121;38.932;-9.018;2022-07-22T09:48:59;101600.59;;;32.78;30.75
63033;BME280;49121;38.932;-9.018;2022-07-22T09:51:21;101598.38;;;33.30;29.86
63033;BME280;49121;38.932;-9.018;2022-07-22T09:53:57;101598.13;;;34.90;27.06
63033;BME280;49121;38.932;-9.018;2022-07-22T09:56:04;101603.75;;;33.12;29.34
63033;BME280;49121;38.932;-9.018;2022-07-22T09:58:07;101598.31;;;33.97;27.61
63033;BME280;49121;38.932;-9.018;2022-07-22T10:00:14;101594.97;;;34.49;26.87
63033;BME280;49121;38.932;-9.018;2022-07-22T10:02:17;101605.91;;;35.02;26.49
63033;BME280;49121;38.932;-9.018;2022-07-22T10:04:20;101596.00;;;34.48;26.81
63033;BME280;49121;38.932;-9.018;2022-07-22T10:06:21;101591.59;;;33.64;28.28
63033;BME280;49121;38.932;-9.018;2022-07-22T10:08:26;101599.78;;;33.64;28.48
63033;BME280;49121;38.932;-9.018;2022-07-22T10:10:32;101620.22;;;33.01;29.43
63033;BME280;49121;38.932;-9.018;2022-07-22T10:12:33;101607.03;;;33.06;29.03
63033;BME280;49121;38.932;-9.018;2022-07-22T10:14:35;101608.41;;;33.49;28.55
63033;BME280;49121;38.932;-9.018;2022-07-22T10:16:37;101614.78;;;33.77;28.73
63033;BME280;49121;38.932;-9.018;2022-07-22T10:18:39;101620.72;;;34.74;27.55
63033;BME280;49121;38.932;-9.018;2022-07-22T10:20:40;101611.25;;;34.68;27.33
63033;BME280;49121;38.932;-9.018;2022-07-22T10:25:14;101618.50;;;35.31;25.30
63033;BME280;49121;38.932;-9.018;2022-07-22T10:29:48;101592.63;;;34.18;27.14
63033;BME280;49121;38.932;-9.018;2022-07-22T10:31:49;101602.31;;;34.30;27.76
63033;BME280;49121;38.932;-9.018;2022-07-22T10:33:55;101619.06;;;35.17;26.63
63033;BME280;49121;38.932;-9.018;2022-07-22T10:36:01;101609.81;;;34.28;27.83
63033;BME280;49121;38.932;-9.018;2022-07-22T10:38:05;101608.88;;;34.10;27.42
63033;BME280;49121;38.932;-9.018;2022-07-22T10:40:47;101598.44;;;34.87;27.30
63033;BME280;49121;38.932;-9.018;2022-07-22T10:45:03;101611.59;;;35.53;25.63
63033;BME280;49121;38.932;-9.018;2022-07-22T10:47:04;101599.63;;;34.84;26.92
63033;BME280;49121;38.932;-9.018;2022-07-22T10:49:07;101602.19;;;34.50;27.95
63033;BME280;49121;38.932;-9.018;2022-07-22T10:51:20;101590.09;;;33.03;31.41
63033;BME280;49121;38.932;-9.018;2022-07-22T11:00:37;101583.22;;;32.59;32.51
63033;BME280;49121;38.932;-9.018;2022-07-22T11:02:38;101571.09;;;31.73;34.46
63033;BME280;49121;38.932;-9.018;2022-07-22T11:04:39;101571.72;;;31.96;34.08
63033;BME280;49121;38.932;-9.018;2022-07-22T11:06:41;101571.25;;;32.31;33.92
63033;BME280;49121;38.932;-9.018;2022-07-22T11:08:43;101571.66;;;32.07;34.44
63033;BME280;49121;38.932;-9.018;2022-07-22T11:10:48;101568.22;;;31.44;35.05
63033;BME280;49121;38.932;-9.018;2022-07-22T11:12:52;101572.72;;;31.12;35.38
63033;BME280;49121;38.932;-9.018;2022-07-22T11:14:52;101567.69;;;31.08;35.63
63033;BME280;49121;38.932;-9.018;2022-07-22T11:16:56;101574.34;;;30.94;35.54
63033;BME280;49121;38.932;-9.018;2022-07-22T11:18:59;101569.38;;;30.67;36.53
63033;BME280;49121;38.932;-9.018;2022-07-22T11:21:00;101575.09;;;30.52;37.50
63033;BME280;49121;38.932;-9.018;2022-07-22T11:23:01;101568.66;;;29.99;38.24
63033;BME280;49121;38.932;-9.018;2022-07-22T11:25:12;101558.53;;;30.01;37.31
63033;BME280;49121;38.932;-9.018;2022-07-22T11:27:17;101565.63;;;29.69;37.58
63033;BME280;49121;38.932;-9.018;2022-07-22T11:29:26;101571.31;;;29.20;38.77